Accueil
METAR-TAF:

METAR-TAF

Aéroports :

Schwäbisch Hall, Allemagne

latitude: 49-07-06N, longitude: 9-47-02E, altitude: 398 m

Observation

Le bulletin a été fait il y a 12 minutes, à 04:50 UTC
Vent calme
Température 16°C
Humidité 94%
Pression 1017 hPa
Visibilité: 9000 m

METAR: EDTY 180450Z 00000KT 9000 NSC 16/15 Q1017

Heure: 07:02 (05:02 UTC)

Prévision

Le bulletin a été fait il y a 12 heures et 2 minutes, à 17:00 UTC
Prévision valable du 17 à 18 UTC au 18 à 03 UTC
Vent 5 kt de ouest/nord-ouest
Visibilité 10 km ou plus
pas de nuages en-dessous de 1500 mètres et pas de cumulonimbus.
Evoluant progressivement
du 17 à 22 UTC au 17 à 24 UTC
Vent 2 kt de direction variable

TAF: EDTY 171700Z 1718/1803 29005KT CAVOK BECMG 1722/1724 VRB02KT

Observations et prévisions météorologiques de plus de 4000 aéroports (messages METAR et TAF).

Les stations disponibles sont représentées par des disques jaunes et rouges sur la carte.

Passer la souris dessus pour voir le nom de la station.

Cliquer dessus pour voir les observations et prévisions météorologiques.

Pour changer de carte: cliquez sur les boutons verts avec une croix noire pour zoomer, sur le bouton vert avec un tiret pour effectuer un zoom arrière, ou sur les flèches vertes pour les cartes adjacentes.


METAR-TAF: